createdAt,value
2022-08-14T00:02:24.654Z,52.14
2022-08-14T00:04:59.710Z,52.00
2022-08-14T00:07:31.778Z,52.25
2022-08-14T00:10:49.747Z,52.52
2022-08-14T00:13:06.800Z,52.58
2022-08-14T00:15:48.413Z,52.39
2022-08-14T00:18:30.966Z,52.55
2022-08-14T00:21:15.976Z,52.93
2022-08-14T00:23:53.796Z,52.96
2022-08-14T00:26:26.344Z,52.53
2022-08-14T00:28:58.360Z,52.81
2022-08-14T00:31:44.474Z,52.37
2022-08-14T00:34:37.243Z,52.92
2022-08-14T00:37:10.049Z,52.66
2022-08-14T00:39:42.604Z,52.38
2022-08-14T00:42:21.269Z,52.53
2022-08-14T00:45:11.464Z,52.71
2022-08-14T00:47:48.305Z,52.58
2022-08-14T00:50:22.133Z,52.32
2022-08-14T00:52:54.369Z,52.73
2022-08-14T00:55:30.006Z,52.57
2022-08-14T00:58:32.882Z,52.52
2022-08-14T01:01:11.086Z,52.96
2022-08-14T01:03:43.760Z,53.31
2022-08-14T01:06:18.559Z,52.99
2022-08-14T01:08:58.147Z,53.28
2022-08-14T01:11:36.123Z,53.37
2022-08-14T01:14:25.654Z,53.42
2022-08-14T01:17:00.488Z,52.94
2022-08-14T01:19:50.805Z,52.85
2022-08-14T01:22:26.959Z,53.67
2022-08-14T01:25:01.496Z,53.71
2022-08-14T01:27:41.007Z,53.65
2022-08-14T01:30:28.226Z,54.13
2022-08-14T01:33:00.278Z,53.58
2022-08-14T01:36:05.388Z,54.16
2022-08-14T01:38:26.501Z,54.12
2022-08-14T01:40:58.838Z,54.08
2022-08-14T01:43:31.035Z,54.52
2022-08-14T01:46:11.605Z,55.00
2022-08-14T01:48:57.525Z,54.94
2022-08-14T01:51:33.729Z,54.78
2022-08-14T01:54:14.196Z,54.42
2022-08-14T01:56:47.090Z,55.04
2022-08-14T01:59:24.104Z,55.20
2022-08-14T02:02:09.986Z,55.03
2022-08-14T02:04:55.529Z,55.35
2022-08-14T02:07:44.648Z,55.55
2022-08-14T02:10:26.253Z,55.39
2022-08-14T02:12:59.590Z,55.69
2022-08-14T02:15:31.725Z,55.43
2022-08-14T02:18:04.500Z,56.21
2022-08-14T02:20:36.537Z,56.44
2022-08-14T02:23:09.058Z,56.62
2022-08-14T02:25:41.174Z,56.50
2022-08-14T02:28:24.233Z,56.98
2022-08-14T02:31:09.120Z,57.50
2022-08-14T02:33:43.001Z,57.66
2022-08-14T02:37:04.922Z,57.64
2022-08-14T02:39:10.755Z,58.01
2022-08-14T02:41:52.440Z,57.82
2022-08-14T02:44:29.735Z,58.29
2022-08-14T02:47:03.015Z,58.52
2022-08-14T02:49:39.708Z,58.28
2022-08-14T02:52:56.753Z,58.11
2022-08-14T02:55:07.317Z,58.10
2022-08-14T02:57:41.061Z,57.98
2022-08-14T03:00:18.542Z,57.78
2022-08-14T03:02:58.923Z,58.92
2022-08-14T03:05:35.992Z,58.35
2022-08-14T03:08:15.346Z,58.47
2022-08-14T03:10:50.006Z,58.85
2022-08-14T03:13:22.315Z,58.86
2022-08-14T03:15:57.876Z,59.00
2022-08-14T03:18:32.607Z,58.53
2022-08-14T03:21:08.042Z,58.41
2022-08-14T03:23:41.725Z,58.67
2022-08-14T03:26:29.883Z,58.95
2022-08-14T03:29:03.831Z,59.01
2022-08-14T03:31:36.554Z,59.09
2022-08-14T03:34:24.650Z,58.64
2022-08-14T03:37:51.539Z,58.82
2022-08-14T03:39:56.624Z,59.30
2022-08-14T03:42:31.049Z,59.28
2022-08-14T03:45:20.348Z,59.03
2022-08-14T03:48:27.463Z,59.01
2022-08-14T03:51:03.416Z,58.95
2022-08-14T03:53:38.060Z,58.76
2022-08-14T03:56:14.447Z,59.28
2022-08-14T03:59:18.094Z,59.91
2022-08-14T04:01:57.972Z,59.51
2022-08-14T04:04:34.014Z,59.90
2022-08-14T04:07:05.993Z,59.84
2022-08-14T04:09:38.430Z,59.78
2022-08-14T04:12:13.476Z,59.65
2022-08-14T04:14:46.364Z,60.38
2022-08-14T04:17:20.236Z,60.32
2022-08-14T04:19:54.434Z,60.13
2022-08-14T04:22:26.497Z,60.64
2022-08-14T04:25:04.902Z,60.64
2022-08-14T04:28:01.942Z,61.10
2022-08-14T04:30:32.655Z,60.28
2022-08-14T04:33:15.866Z,60.31
2022-08-14T04:35:56.337Z,60.36
2022-08-14T04:38:47.301Z,60.43
2022-08-14T04:41:53.926Z,60.81
2022-08-14T04:44:26.674Z,60.28
2022-08-14T04:47:27.105Z,60.33
2022-08-14T04:50:06.739Z,60.16
2022-08-14T04:52:39.447Z,60.31
2022-08-14T04:55:11.604Z,60.35
2022-08-14T04:57:43.595Z,60.13
2022-08-14T05:00:18.116Z,60.52
2022-08-14T05:02:50.292Z,60.69
2022-08-14T05:05:23.247Z,60.72
2022-08-14T05:08:01.790Z,60.29
2022-08-14T05:10:33.960Z,60.62
2022-08-14T05:13:13.449Z,60.19
2022-08-14T05:15:47.940Z,60.03
2022-08-14T05:18:37.192Z,59.86
2022-08-14T05:22:00.240Z,59.98
2022-08-14T05:24:17.823Z,59.92
2022-08-14T05:26:50.957Z,59.15
2022-08-14T05:29:23.727Z,59.48
2022-08-14T05:31:57.361Z,59.10
2022-08-14T05:34:31.566Z,58.85
2022-08-14T05:37:06.820Z,59.31
2022-08-14T05:39:41.316Z,59.09
2022-08-14T05:42:22.200Z,59.32
2022-08-14T05:44:59.892Z,58.93
2022-08-14T05:47:34.170Z,58.70
2022-08-14T05:50:17.372Z,58.30
2022-08-14T05:52:51.621Z,58.56
2022-08-14T05:55:24.079Z,58.15
2022-08-14T05:57:59.959Z,57.53
2022-08-14T06:00:40.113Z,57.71
2022-08-14T06:03:16.545Z,57.47
2022-08-14T06:05:53.309Z,56.98
2022-08-14T06:08:36.301Z,56.66
2022-08-14T06:11:14.935Z,56.59
2022-08-14T06:13:52.600Z,56.44
2022-08-14T06:16:24.564Z,55.96
2022-08-14T06:18:59.656Z,55.74
2022-08-14T06:21:31.796Z,55.51
2022-08-14T06:24:05.269Z,55.53
2022-08-14T06:26:42.582Z,56.00
2022-08-14T06:29:24.017Z,55.52
2022-08-14T06:32:00.393Z,55.39
2022-08-14T06:35:03.661Z,54.92
2022-08-14T06:37:51.969Z,55.41
2022-08-14T06:40:28.772Z,54.97
2022-08-14T06:43:07.446Z,55.20
2022-08-14T06:45:42.073Z,54.94
2022-08-14T06:48:24.098Z,54.69
2022-08-14T06:50:57.823Z,55.32
2022-08-14T06:53:30.212Z,55.09
2022-08-14T06:56:02.586Z,55.35
2022-08-14T06:58:35.709Z,55.18
2022-08-14T07:01:27.910Z,55.21
2022-08-14T07:04:23.749Z,55.27
2022-08-14T07:06:59.598Z,55.57
2022-08-14T07:09:43.647Z,54.77
2022-08-14T07:12:55.083Z,55.47
2022-08-14T07:15:15.594Z,54.89
2022-08-14T07:17:52.141Z,53.87
2022-08-14T07:20:31.165Z,54.36
2022-08-14T07:23:10.831Z,53.76
2022-08-14T07:25:44.822Z,54.24
2022-08-14T07:28:29.718Z,54.19
2022-08-14T07:31:05.828Z,53.87
2022-08-14T07:33:50.814Z,53.41
2022-08-14T07:36:30.320Z,53.99
2022-08-14T07:39:13.179Z,53.29
2022-08-14T07:41:45.346Z,52.84
2022-08-14T07:44:32.567Z,52.63
2022-08-14T07:47:08.085Z,52.71
2022-08-14T07:49:41.531Z,52.51
2022-08-14T07:52:15.495Z,51.55
2022-08-14T07:54:55.013Z,49.86
2022-08-14T07:57:27.886Z,49.97
2022-08-14T07:59:59.928Z,47.29
2022-08-14T08:02:32.837Z,45.10
2022-08-14T08:05:06.767Z,43.18
2022-08-14T08:07:40.528Z,41.51
2022-08-14T08:11:02.469Z,39.36
2022-08-14T08:13:29.349Z,38.67
2022-08-14T08:16:03.370Z,38.28
2022-08-14T08:18:36.309Z,37.00
2022-08-14T08:21:08.527Z,36.12
2022-08-14T08:23:43.570Z,34.34
2022-08-14T08:26:30.937Z,36.06
2022-08-14T08:29:03.142Z,34.01
2022-08-14T08:31:49.002Z,33.80
2022-08-14T08:34:24.330Z,32.17
2022-08-14T08:37:01.679Z,31.96
2022-08-14T08:40:01.732Z,31.18
2022-08-14T08:42:41.190Z,30.50
2022-08-14T08:45:17.863Z,30.15
2022-08-14T08:47:51.295Z,28.75
2022-08-14T08:53:11.125Z,27.03
2022-08-14T08:55:45.990Z,27.48
2022-08-14T08:58:20.259Z,28.29
2022-08-14T09:01:00.180Z,27.34
2022-08-14T09:03:32.419Z,28.96
2022-08-14T09:06:53.826Z,29.40
2022-08-14T09:08:58.033Z,29.63
2022-08-14T09:11:30.449Z,27.75
2022-08-14T09:14:05.596Z,28.89
2022-08-14T09:16:37.939Z,28.88
2022-08-14T09:19:10.938Z,29.32
2022-08-14T09:21:43.011Z,30.17
2022-08-14T09:24:28.094Z,30.07
2022-08-14T09:27:06.753Z,29.79
2022-08-14T09:29:39.121Z,30.72
2022-08-14T09:32:57.951Z,31.24
2022-08-14T09:35:39.375Z,29.98
2022-08-14T09:39:21.161Z,29.69
2022-08-14T09:42:33.814Z,29.80
2022-08-14T09:45:20.168Z,30.23
2022-08-14T09:47:55.705Z,29.83
2022-08-14T09:50:48.878Z,30.87
2022-08-14T09:54:18.203Z,30.32
2022-08-14T09:56:56.913Z,31.79
2022-08-14T09:59:41.755Z,29.64
2022-08-14T10:02:22.137Z,30.35
2022-08-14T10:05:10.146Z,30.18
2022-08-14T10:07:53.732Z,30.30
2022-08-14T10:10:41.863Z,29.13
2022-08-14T10:13:25.996Z,28.99
2022-08-14T10:16:03.052Z,29.66
2022-08-14T10:18:35.251Z,29.25
2022-08-14T10:21:16.422Z,28.59
2022-08-14T10:23:52.550Z,28.87
2022-08-14T10:26:28.399Z,28.12
2022-08-14T10:29:18.699Z,28.74
2022-08-14T10:31:59.572Z,26.92
2022-08-14T10:34:36.567Z,28.32
2022-08-14T10:37:15.150Z,28.05
2022-08-14T10:40:10.707Z,27.66
2022-08-14T10:42:53.387Z,27.92
2022-08-14T10:45:35.694Z,27.68
2022-08-14T10:48:23.688Z,27.12
2022-08-14T10:51:08.485Z,27.08
2022-08-14T10:53:40.809Z,26.67
2022-08-14T10:56:21.561Z,24.94
2022-08-14T10:59:08.791Z,24.79
2022-08-14T11:01:42.935Z,24.76
2022-08-14T11:04:30.795Z,23.98
2022-08-14T11:07:05.877Z,23.73
2022-08-14T11:09:41.951Z,23.41
2022-08-14T11:12:34.372Z,22.54
2022-08-14T11:15:09.974Z,22.08
2022-08-14T11:17:42.070Z,21.58
2022-08-14T11:20:30.800Z,19.71
2022-08-14T11:23:03.154Z,18.79
2022-08-14T11:25:44.445Z,19.70
2022-08-14T11:28:48.613Z,21.23
2022-08-14T11:31:23.974Z,19.83
2022-08-14T11:33:58.482Z,20.25
2022-08-14T11:37:02.340Z,19.76
2022-08-14T11:39:35.050Z,19.82
2022-08-14T11:42:56.240Z,19.01
2022-08-14T11:45:17.061Z,18.34
2022-08-14T11:48:12.575Z,17.67
2022-08-14T11:50:50.666Z,17.69
2022-08-14T11:53:33.337Z,18.38
2022-08-14T11:56:06.493Z,19.76
2022-08-14T11:58:43.542Z,19.44
2022-08-14T12:01:15.871Z,19.14
2022-08-14T12:03:52.144Z,18.11
2022-08-14T12:06:39.389Z,17.34
2022-08-14T12:09:15.225Z,16.41
2022-08-14T12:11:51.472Z,17.16
2022-08-14T12:14:30.950Z,18.67
2022-08-14T12:17:11.750Z,19.14
2022-08-14T12:20:06.470Z,19.78
2022-08-14T12:22:44.546Z,20.45
2022-08-14T12:25:24.899Z,21.08
2022-08-14T12:28:01.654Z,21.18
2022-08-14T12:30:44.441Z,19.14
2022-08-14T12:33:34.053Z,17.63
2022-08-14T12:36:20.964Z,16.48
2022-08-14T12:38:55.068Z,15.97
2022-08-14T12:41:37.215Z,16.46
2022-08-14T12:44:09.459Z,15.37
2022-08-14T12:46:43.373Z,15.99
2022-08-14T12:49:18.894Z,15.63
2022-08-14T12:51:59.693Z,15.43
2022-08-14T12:54:32.620Z,15.22
2022-08-14T12:57:19.390Z,14.85
2022-08-14T12:59:53.565Z,14.91
2022-08-14T13:02:27.614Z,14.61
2022-08-14T13:04:59.846Z,14.66
2022-08-14T13:07:33.239Z,16.35
2022-08-14T13:10:47.218Z,18.17
2022-08-14T13:13:15.613Z,19.89
2022-08-14T13:15:57.193Z,18.63
2022-08-14T13:18:31.671Z,19.60
2022-08-14T13:21:05.687Z,19.45
2022-08-14T13:23:41.129Z,19.86
2022-08-14T13:26:17.370Z,20.23
2022-08-14T13:29:02.446Z,20.52
2022-08-14T13:31:39.105Z,20.41
2022-08-14T13:34:16.156Z,20.10
2022-08-14T13:36:54.693Z,19.92
2022-08-14T13:39:36.432Z,21.83
2022-08-14T13:42:13.436Z,22.37
2022-08-14T13:44:46.198Z,22.52
2022-08-14T13:47:20.162Z,22.18
2022-08-14T13:49:57.571Z,22.27
2022-08-14T13:52:55.526Z,22.23
2022-08-14T13:55:30.635Z,21.53
2022-08-14T13:58:05.202Z,21.82
2022-08-14T14:00:53.137Z,22.80
2022-08-14T14:05:59.063Z,23.34
2022-08-14T14:08:46.778Z,22.75
2022-08-14T14:11:24.286Z,22.87
2022-08-14T14:14:00.002Z,22.95
2022-08-14T14:16:33.036Z,23.95
2022-08-14T14:19:09.379Z,23.51
2022-08-14T14:21:42.494Z,24.75
2022-08-14T14:24:15.371Z,25.54
2022-08-14T14:26:50.205Z,26.03
2022-08-14T14:29:26.371Z,26.39
2022-08-14T14:32:02.039Z,25.75
2022-08-14T14:34:37.799Z,26.53
2022-08-14T14:37:15.613Z,25.93
2022-08-14T14:40:52.662Z,26.45
2022-08-14T14:42:53.262Z,26.52
2022-08-14T14:45:28.394Z,26.06
2022-08-14T14:48:00.990Z,25.63
2022-08-14T14:50:34.138Z,25.40
2022-08-14T14:53:13.254Z,25.27
2022-08-14T14:56:46.625Z,24.80
2022-08-14T14:58:41.997Z,24.58
2022-08-14T15:01:15.885Z,24.22
2022-08-14T15:03:48.152Z,24.34
2022-08-14T15:06:29.492Z,24.19
2022-08-14T15:09:04.692Z,24.74
2022-08-14T15:11:37.085Z,24.63
2022-08-14T15:14:55.246Z,24.57
2022-08-14T15:17:02.847Z,24.66
2022-08-14T15:19:35.450Z,24.96
2022-08-14T15:22:10.442Z,24.73
2022-08-14T15:24:46.553Z,24.31
2022-08-14T15:27:26.172Z,24.16
2022-08-14T15:29:59.565Z,24.23
2022-08-14T15:32:31.741Z,24.23
2022-08-14T15:35:04.862Z,24.80
2022-08-14T15:37:44.415Z,24.60
2022-08-14T15:40:22.179Z,24.67
2022-08-14T15:42:54.750Z,24.89
2022-08-14T15:45:28.043Z,25.20
2022-08-14T15:48:02.117Z,24.68
2022-08-14T15:50:36.272Z,25.12
2022-08-14T15:53:09.220Z,24.40
2022-08-14T15:55:44.281Z,25.25
2022-08-14T15:58:16.976Z,25.52
2022-08-14T16:01:10.688Z,26.56
2022-08-14T16:03:46.321Z,27.36
2022-08-14T16:06:20.902Z,26.17
2022-08-14T16:08:58.719Z,26.99
2022-08-14T16:11:32.940Z,27.58
2022-08-14T16:14:06.782Z,27.27
2022-08-14T16:16:51.597Z,26.99
2022-08-14T16:19:31.929Z,27.63
2022-08-14T16:22:58.063Z,27.44
2022-08-14T16:25:05.725Z,26.88
2022-08-14T16:27:41.364Z,26.89
2022-08-14T16:30:25.184Z,26.69
2022-08-14T16:33:01.298Z,25.80
2022-08-14T16:35:42.697Z,26.05
2022-08-14T16:38:46.472Z,26.17
2022-08-14T16:41:26.523Z,26.47
2022-08-14T16:44:21.893Z,26.18
2022-08-14T16:47:22.641Z,26.95
2022-08-14T16:50:04.502Z,27.42
2022-08-14T16:52:44.295Z,27.72
2022-08-14T16:55:18.145Z,26.94
2022-08-14T16:57:58.504Z,27.57
2022-08-14T17:00:44.084Z,27.10
2022-08-14T17:03:17.186Z,28.24
2022-08-14T17:05:49.401Z,28.01
2022-08-14T17:08:41.882Z,27.85
2022-08-14T17:11:15.420Z,29.31
2022-08-14T17:14:00.518Z,28.71
2022-08-14T17:16:39.181Z,28.59
2022-08-14T17:19:14.192Z,28.88
2022-08-14T17:21:52.346Z,28.48
2022-08-14T17:24:57.896Z,28.88
2022-08-14T17:27:23.112Z,28.81
2022-08-14T17:29:57.772Z,28.95
2022-08-14T17:32:56.178Z,28.87
2022-08-14T17:35:58.159Z,28.81
2022-08-14T17:38:39.581Z,29.42
2022-08-14T17:41:32.984Z,29.06
2022-08-14T17:44:34.359Z,29.39
2022-08-14T17:47:17.811Z,29.98
2022-08-14T17:49:52.316Z,29.97
2022-08-14T17:52:34.853Z,29.56
2022-08-14T17:56:01.428Z,29.73
2022-08-14T17:58:20.351Z,29.89
2022-08-14T18:01:04.675Z,29.99
2022-08-14T18:03:50.677Z,30.19
2022-08-14T18:06:39.592Z,30.29
2022-08-14T18:09:25.159Z,30.73
2022-08-14T18:12:07.412Z,30.14
2022-08-14T18:14:48.950Z,31.11
2022-08-14T18:17:26.108Z,31.20
2022-08-14T18:19:58.872Z,31.03
2022-08-14T18:22:39.452Z,31.49
2022-08-14T18:25:18.338Z,31.27
2022-08-14T18:27:52.641Z,31.60
2022-08-14T18:30:33.163Z,31.76
2022-08-14T18:33:22.926Z,32.02
2022-08-14T18:35:59.313Z,32.77
2022-08-14T18:38:46.472Z,32.18
2022-08-14T18:41:37.412Z,32.51
2022-08-14T18:44:11.111Z,32.46
2022-08-14T18:47:10.181Z,32.55
2022-08-14T18:49:57.863Z,32.58
2022-08-14T18:52:41.703Z,32.73
2022-08-14T18:55:18.969Z,33.42
2022-08-14T18:57:58.268Z,33.69
2022-08-14T19:00:33.798Z,33.46
2022-08-14T19:03:33.815Z,33.91
2022-08-14T19:06:10.870Z,34.26
2022-08-14T19:08:50.498Z,34.12
2022-08-14T19:11:32.470Z,34.31
2022-08-14T19:14:07.227Z,34.46
2022-08-14T19:16:42.944Z,34.59
2022-08-14T19:19:20.082Z,34.55
2022-08-14T19:21:57.212Z,34.92
2022-08-14T19:24:44.199Z,35.23
2022-08-14T19:27:37.792Z,35.13
2022-08-14T19:30:19.863Z,35.46
2022-08-14T19:32:57.869Z,35.20
2022-08-14T19:35:49.964Z,35.76
2022-08-14T19:38:55.062Z,35.43
2022-08-14T19:41:34.038Z,35.50
2022-08-14T19:44:20.123Z,35.41
2022-08-14T19:47:04.888Z,35.78
2022-08-14T19:50:30.555Z,36.01
2022-08-14T19:52:37.363Z,36.03
2022-08-14T19:55:20.403Z,36.52
2022-08-14T19:58:07.442Z,36.68
2022-08-14T20:00:56.010Z,37.43
2022-08-14T20:04:00.375Z,37.07
2022-08-14T20:06:46.596Z,37.57
2022-08-14T20:11:02.962Z,37.07
2022-08-14T20:12:29.194Z,37.48
2022-08-14T20:15:15.404Z,37.41
2022-08-14T20:17:53.524Z,37.65
2022-08-14T20:20:31.630Z,37.54
2022-08-14T20:23:16.640Z,37.63
2022-08-14T20:25:56.897Z,38.11
2022-08-14T20:28:32.822Z,37.92
2022-08-14T20:31:18.712Z,37.98
2022-08-14T20:34:08.002Z,37.79
2022-08-14T20:37:10.435Z,38.14
2022-08-14T20:39:54.600Z,38.01
2022-08-14T20:42:50.447Z,38.24
2022-08-14T20:45:27.583Z,38.18
2022-08-14T20:48:01.823Z,38.40
2022-08-14T20:50:44.900Z,38.05
2022-08-14T20:53:36.567Z,38.31
2022-08-14T20:56:30.333Z,38.37
2022-08-14T20:59:25.748Z,38.66
2022-08-14T21:02:00.499Z,38.71
2022-08-14T21:05:00.710Z,39.15
2022-08-14T21:07:36.147Z,39.35
2022-08-14T21:10:36.030Z,39.27
2022-08-14T21:14:09.260Z,39.49
2022-08-14T21:16:33.196Z,39.66
2022-08-14T21:19:02.287Z,39.66
2022-08-14T21:21:41.743Z,40.06
2022-08-14T21:24:38.792Z,40.13
2022-08-14T21:27:22.792Z,40.14
2022-08-14T21:29:56.478Z,40.46
2022-08-14T21:32:47.343Z,40.33
2022-08-14T21:35:23.026Z,40.59
2022-08-14T21:37:57.132Z,40.77
2022-08-14T21:40:40.254Z,41.00
2022-08-14T21:43:20.236Z,41.07
2022-08-14T21:45:58.765Z,41.21
2022-08-14T21:48:34.085Z,41.61
2022-08-14T21:51:54.235Z,41.76
2022-08-14T21:54:01.398Z,42.11
2022-08-14T21:56:41.923Z,42.04
2022-08-14T21:59:34.182Z,42.55
2022-08-14T22:02:08.035Z,42.52
2022-08-14T22:05:03.548Z,42.54
2022-08-14T22:07:36.837Z,43.29
2022-08-14T22:10:14.238Z,43.28
2022-08-14T22:13:00.324Z,43.70
2022-08-14T22:15:33.385Z,44.68
2022-08-14T22:18:06.378Z,44.17
2022-08-14T22:20:41.080Z,44.76
2022-08-14T22:23:13.531Z,45.25
2022-08-14T22:25:46.221Z,45.39
2022-08-14T22:28:32.933Z,45.76
2022-08-14T22:31:18.392Z,46.37
2022-08-14T22:33:57.779Z,46.49
2022-08-14T22:36:49.055Z,46.98
2022-08-14T22:40:54.002Z,46.72
2022-08-14T22:42:22.941Z,47.25
2022-08-14T22:44:56.746Z,47.57
2022-08-14T22:47:34.562Z,47.76
2022-08-14T22:50:29.089Z,47.53
2022-08-14T22:53:06.682Z,47.71
2022-08-14T22:55:40.186Z,47.73
2022-08-14T22:58:17.090Z,47.91
2022-08-14T23:00:49.796Z,47.10
2022-08-14T23:03:23.111Z,47.11
2022-08-14T23:05:55.106Z,47.01
2022-08-14T23:08:59.358Z,46.87
2022-08-14T23:11:19.453Z,47.20
2022-08-14T23:13:54.838Z,46.18
2022-08-14T23:16:26.836Z,45.31
2022-08-14T23:18:58.963Z,45.06
2022-08-14T23:21:31.080Z,44.24
2022-08-14T23:24:06.114Z,43.97
2022-08-14T23:26:47.792Z,43.64
2022-08-14T23:29:22.080Z,43.49
2022-08-14T23:31:56.968Z,42.83
2022-08-14T23:34:31.328Z,42.55
2022-08-14T23:37:04.632Z,42.74
2022-08-14T23:39:39.237Z,42.73
2022-08-14T23:42:17.968Z,41.96
2022-08-14T23:44:50.697Z,41.69
2022-08-14T23:47:26.425Z,41.75
2022-08-14T23:50:07.556Z,40.89
2022-08-14T23:53:06.812Z,41.65
2022-08-14T23:55:34.432Z,41.27
2022-08-14T23:58:07.712Z,41.46
